Time;durP1;ratioP1;P1;durP2;ratioP2;P2;SDS_P1;SDS_P2;PMS_P1;PMS_P2;Temp;Humidity;BMP_temperature;BMP_pressure;BME280_temperature;BME280_humidity;BME280_pressure;Samples;Min_cycle;Max_cycle;Signal;HPM_P1;HPM_P2
2021/08/20 00:01:22;;;;;;;;;0.00;0.00;;;;;26.12;43.94;100907.34;5078223;27;45429;-71
2021/08/20 00:03:47;;;;;;;;;0.00;0.00;;;;;26.09;43.98;100905.63;5077952;28;45460;-71
2021/08/20 00:06:12;;;;;;;;;0.00;0.00;;;;;26.09;44.11;100900.16;5059561;28;45910;-70
2021/08/20 00:08:38;;;;;;;;;0.00;0.00;;;;;26.10;43.98;100912.84;5059707;28;45410;-71
2021/08/20 00:11:06;;;;;;;;;0.00;0.00;;;;;26.09;43.98;100908.34;5059814;28;45465;-71
2021/08/20 00:13:32;;;;;;;;;0.00;0.00;;;;;26.11;43.96;100905.56;5059255;28;47247;-71
2021/08/20 00:15:57;;;;;;;;;0.00;0.00;;;;;26.09;44.18;100900.16;5059468;28;45535;-71
2021/08/20 00:18:24;;;;;;;;;0.00;0.00;;;;;26.08;43.69;100898.41;5077674;28;45438;-71
2021/08/20 00:20:50;;;;;;;;;0.00;0.00;;;;;26.08;44.03;100900.28;5078030;28;45496;-71
2021/08/20 00:23:16;;;;;;;;;0.00;0.00;;;;;26.09;44.02;100900.16;5077563;28;45531;-71
2021/08/20 00:25:41;;;;;;;;;0.00;0.00;;;;;26.08;44.05;100897.53;5076336;28;45479;-71
2021/08/20 00:28:07;;;;;;;;;0.00;0.00;;;;;26.08;43.79;100901.16;5077664;28;45508;-71
2021/08/20 00:30:32;;;;;;;;;0.00;0.00;;;;;26.08;44.10;100900.28;5078032;28;45566;-71
2021/08/20 00:32:57;;;;;;;;;0.00;0.00;;;;;26.07;43.78;100898.50;5059304;28;46930;-71
2021/08/20 00:35:23;;;;;;;;;0.00;0.00;;;;;26.07;43.91;100901.22;5059078;28;45462;-71
2021/08/20 00:37:48;;;;;;;;;0.00;0.00;;;;;26.08;44.07;100898.41;5059143;28;45456;-71
2021/08/20 00:40:14;;;;;;;;;0.00;0.00;;;;;26.08;44.07;100897.53;5077623;28;45397;-71
2021/08/20 00:42:39;;;;;;;;;0.00;0.00;;;;;26.06;43.98;100905.78;5076967;28;45592;-71
2021/08/20 00:45:05;;;;;;;;;0.00;0.00;;;;;26.08;44.13;100900.28;5059062;28;45378;-71
2021/08/20 00:47:31;;;;;;;;;0.00;0.00;;;;;26.09;43.87;100904.75;5077329;28;45428;-71
2021/08/20 00:49:56;;;;;;;;;0.00;0.00;;;;;26.08;43.96;100909.31;5077150;28;45367;-71
2021/08/20 00:52:23;;;;;;;;;0.00;0.00;;;;;26.03;43.86;100900.47;5076962;28;45447;-71
2021/08/20 00:54:49;;;;;;;;;0.00;0.00;;;;;26.08;43.92;100903.00;5057895;28;45463;-71
2021/08/20 00:57:18;;;;;;;;;0.00;0.00;;;;;26.05;44.05;100897.69;5058591;28;45612;-71
2021/08/20 00:59:46;;;;;;;;;0.00;0.00;;;;;26.07;43.84;100896.63;5076958;28;45485;-71
2021/08/20 01:02:12;;;;;;;;;0.00;0.00;;;;;26.07;44.08;100896.63;5058375;28;48355;-71
2021/08/20 01:04:37;;;;;;;;;0.00;0.00;;;;;26.02;44.10;100882.38;5074316;28;45802;-71
2021/08/20 01:07:05;;;;;;;;;0.00;0.00;;;;;26.05;43.96;100886.78;5074339;28;45342;-71
2021/08/20 01:09:30;;;;;;;;;0.00;0.00;;;;;26.05;44.21;100887.66;5073966;28;45456;-71
2021/08/20 01:11:56;;;;;;;;;0.00;0.00;;;;;26.02;43.73;100879.63;5073848;28;46122;-71
2021/08/20 01:14:35;;;;;;;;;0.00;0.00;;;;;26.04;44.01;100883.16;5073743;28;45418;-71
2021/08/20 01:17:02;;;;;;;;;0.00;0.00;;;;;26.05;44.00;100881.31;5073849;28;45365;-71
2021/08/20 01:19:34;;;;;;;;;0.00;0.00;;;;;26.05;44.19;100875.88;5073914;28;45452;-71
2021/08/20 01:22:00;;;;;;;;;0.00;0.00;;;;;26.05;43.92;100874.03;5073480;28;46669;-71
2021/08/20 01:24:26;;;;;;;;;0.00;0.00;;;;;26.04;44.07;100869.53;5073333;28;45386;-70
2021/08/20 01:26:52;;;;;;;;;0.00;0.00;;;;;26.04;44.15;100869.53;5072188;28;45444;-70
2021/08/20 01:29:19;;;;;;;;;0.00;0.00;;;;;26.04;43.62;100875.00;5073518;28;45460;-70
2021/08/20 01:31:47;;;;;;;;;0.00;0.00;;;;;26.04;43.80;100863.22;5073566;28;45716;-70
2021/08/20 01:34:13;;;;;;;;;0.00;0.00;;;;;26.03;43.93;100859.59;5054743;28;45503;-70
2021/08/20 01:36:38;;;;;;;;;0.00;0.00;;;;;26.02;43.79;100856.97;5073443;28;45429;-70
2021/08/20 01:39:04;;;;;;;;;0.00;0.00;;;;;26.03;43.72;100862.31;5073687;28;45484;-70
2021/08/20 01:41:31;;;;;;;;;0.00;0.00;;;;;26.04;43.79;100869.53;5073317;28;45391;-70
2021/08/20 01:43:58;;;;;;;;;0.00;0.00;;;;;26.03;43.73;100865.03;5054458;28;45460;-70
2021/08/20 01:46:24;;;;;;;;;0.00;0.00;;;;;26.01;43.89;100864.22;5073690;28;45459;-70
2021/08/20 01:48:53;;;;;;;;;0.00;0.00;;;;;26.01;44.02;100866.94;5073284;28;45512;-70
2021/08/20 01:51:22;;;;;;;;;0.00;0.00;;;;;26.02;43.98;100874.19;5073091;28;45452;-70
2021/08/20 01:53:48;;;;;;;;;0.00;0.00;;;;;26.00;43.57;100867.94;5072965;28;45414;-70
2021/08/20 01:56:16;;;;;;;;;0.00;0.00;;;;;26.00;43.57;100867.06;5053876;28;45449;-70
2021/08/20 01:58:42;;;;;;;;;0.00;0.00;;;;;26.02;43.93;100867.84;5073276;28;45455;-70
2021/08/20 02:01:09;;;;;;;;;0.00;0.00;;;;;26.00;43.80;100867.06;5073170;28;45493;-70
2021/08/20 02:03:35;;;;;;;;;0.00;0.00;;;;;25.97;43.57;100859.88;5073277;27;45417;-70
2021/08/20 02:06:00;;;;;;;;;0.00;0.00;;;;;25.98;43.47;100861.66;5054446;28;45413;-71
2021/08/20 02:08:25;;;;;;;;;0.00;0.00;;;;;25.99;43.65;100860.69;5073366;28;45436;-71
2021/08/20 02:10:55;;;;;;;;;0.00;0.00;;;;;25.98;43.69;100864.41;5073096;28;45333;-70
2021/08/20 02:13:22;;;;;;;;;0.00;0.00;;;;;25.98;43.56;100853.50;5054145;28;45453;-70
2021/08/20 02:15:48;;;;;;;;;0.00;0.00;;;;;25.97;43.78;100854.44;5054464;28;45479;-70
2021/08/20 02:18:14;;;;;;;;;0.00;0.00;;;;;25.95;43.74;100861.81;5054545;28;45438;-70
2021/08/20 02:20:40;;;;;;;;;0.00;0.00;;;;;25.95;43.48;100859.06;5072691;28;45777;-70
2021/08/20 02:23:07;;;;;;;;;0.00;0.00;;;;;25.97;43.71;100856.28;5072648;28;45487;-69
2021/08/20 02:25:32;;;;;;;;;0.00;0.00;;;;;25.95;43.92;100864.53;5072135;28;45744;-70
2021/08/20 02:27:57;;;;;;;;;0.00;0.00;;;;;25.93;43.91;100855.53;5051101;28;45420;-70
2021/08/20 02:30:23;;;;;;;;;0.00;0.00;;;;;25.94;43.48;100858.19;5052267;28;45558;-70
2021/08/20 02:32:48;;;;;;;;;0.00;0.00;;;;;25.94;43.73;100862.78;5052380;28;45510;-70
2021/08/20 02:35:14;;;;;;;;;0.00;0.00;;;;;25.94;43.52;100868.22;5052437;28;45586;-70
2021/08/20 02:37:39;;;;;;;;;0.00;0.00;;;;;25.94;43.96;100865.50;5052561;28;45728;-70
2021/08/20 02:40:05;;;;;;;;;0.00;0.00;;;;;25.93;43.76;100869.16;5052135;28;45474;-70
2021/08/20 02:42:30;;;;;;;;;0.00;0.00;;;;;25.90;43.58;100862.03;5052201;28;45390;-70
2021/08/20 02:44:56;;;;;;;;;0.00;0.00;;;;;25.91;43.44;100863.78;5050695;28;45767;-70
2021/08/20 02:47:21;;;;;;;;;0.00;0.00;;;;;25.91;43.91;100868.34;5052427;28;45472;-70
2021/08/20 02:49:47;;;;;;;;;0.00;0.00;;;;;25.93;43.59;100867.34;5050489;28;45483;-70
2021/08/20 02:52:12;;;;;;;;;0.00;0.00;;;;;25.92;43.93;100865.56;5050844;28;45486;-70
2021/08/20 02:54:37;;;;;;;;;0.00;0.00;;;;;25.92;43.71;100859.25;5050721;28;45445;-70
2021/08/20 02:57:03;;;;;;;;;0.00;0.00;;;;;25.92;43.96;100864.69;5052134;28;45551;-70
2021/08/20 02:59:28;;;;;;;;;0.00;0.00;;;;;25.92;43.80;100859.25;5051845;28;45591;-70
2021/08/20 03:01:54;;;;;;;;;0.00;0.00;;;;;25.94;43.78;100862.78;5051881;28;45457;-70
2021/08/20 03:04:19;;;;;;;;;0.00;0.00;;;;;25.92;43.84;100859.25;5050677;28;45759;-70
2021/08/20 03:06:45;;;;;;;;;0.00;0.00;;;;;25.91;43.63;100852.00;5050378;28;45521;-71
2021/08/20 03:09:11;;;;;;;;;0.00;0.00;;;;;25.90;43.85;100851.13;5050585;28;46888;-71
2021/08/20 03:11:37;;;;;;;;;0.00;0.00;;;;;25.90;43.83;100855.72;5051969;28;45483;-71
2021/08/20 03:14:05;;;;;;;;;0.00;0.00;;;;;25.91;43.56;100858.34;5051918;28;45536;-70
2021/08/20 03:16:30;;;;;;;;;0.00;0.00;;;;;25.90;43.93;100859.31;5052192;28;45480;-70
2021/08/20 03:18:55;;;;;;;;;0.00;0.00;;;;;25.91;43.62;100852.88;5051612;28;46440;-70
2021/08/20 03:21:21;;;;;;;;;0.00;0.00;;;;;25.92;43.80;100861.97;5051780;28;45518;-70
2021/08/20 03:23:46;;;;;;;;;0.00;0.00;;;;;25.91;43.80;100857.47;5052179;28;45408;-70
2021/08/20 03:26:11;;;;;;;;;0.00;0.00;;;;;25.91;43.63;100852.00;5055817;28;45384;-70
2021/08/20 03:28:37;;;;;;;;;0.00;0.00;;;;;25.91;43.50;100841.09;5071688;28;45518;-70
2021/08/20 03:31:02;;;;;;;;;0.00;0.00;;;;;25.91;43.70;100846.56;5071799;28;45811;-70
2021/08/20 03:33:27;;;;;;;;;0.00;0.00;;;;;25.92;43.56;100842.88;5071974;28;45448;-70
2021/08/20 03:35:53;;;;;;;;;0.00;0.00;;;;;25.87;43.16;100837.59;5053675;28;45679;-70
2021/08/20 03:38:18;;;;;;;;;0.00;0.00;;;;;25.91;43.66;100846.56;5071302;28;46287;-70
2021/08/20 03:40:45;;;;;;;;;0.00;0.00;;;;;25.91;43.43;100846.56;5072097;28;45440;-71
2021/08/20 03:43:11;;;;;;;;;0.00;0.00;;;;;25.90;43.49;100855.72;5071690;28;45433;-71
2021/08/20 03:45:36;;;;;;;;;0.00;0.00;;;;;25.92;43.58;100853.78;5071669;28;45405;-70
2021/08/20 03:48:01;;;;;;;;;0.00;0.00;;;;;25.90;43.63;100856.59;5071773;28;45401;-70
2021/08/20 03:50:27;;;;;;;;;0.00;0.00;;;;;25.91;43.50;100852.00;5071654;28;45679;-70
2021/08/20 03:52:52;;;;;;;;;0.00;0.00;;;;;25.91;43.53;100861.06;5071645;28;45739;-70
2021/08/20 03:55:18;;;;;;;;;0.00;0.00;;;;;25.89;43.31;100845.72;5053378;28;45550;-70
2021/08/20 03:57:43;;;;;;;;;0.00;0.00;;;;;25.90;43.50;100850.25;5071305;28;45444;-70
2021/08/20 04:00:09;;;;;;;;;0.00;0.00;;;;;25.85;43.33;100846.81;5071235;28;45514;-71
2021/08/20 04:02:34;;;;;;;;;0.00;0.00;;;;;25.90;43.33;100853.84;5071879;28;45859;-70
2021/08/20 04:05:00;;;;;;;;;0.00;0.00;;;;;25.90;43.52;100861.16;5071643;28;45482;-71
2021/08/20 04:07:26;;;;;;;;;0.00;0.00;;;;;25.91;43.69;100862.91;5074093;28;45511;-73
2021/08/20 04:09:51;;;;;;;;;0.00;0.00;;;;;25.92;43.32;100864.69;5074416;28;45436;-73
2021/08/20 04:12:18;;;;;;;;;0.00;0.00;;;;;25.91;43.59;100863.78;5056100;28;45616;-73
2021/08/20 04:14:43;;;;;;;;;0.00;0.00;;;;;25.92;43.84;100875.59;5055839;28;45560;-73
2021/08/20 04:17:08;;;;;;;;;0.00;0.00;;;;;25.92;43.58;100881.03;5074375;28;46229;-73
2021/08/20 04:19:34;;;;;;;;;0.00;0.00;;;;;25.92;43.32;100872.88;5058553;28;45397;-74
2021/08/20 04:22:05;;;;;;;;;0.00;0.00;;;;;25.92;43.59;100883.75;5077529;28;45767;-73
2021/08/20 04:24:31;;;;;;;;;0.00;0.00;;;;;25.90;43.63;100882.94;5059445;28;45535;-73
2021/08/20 04:26:56;;;;;;;;;0.00;0.00;;;;;25.91;43.23;100887.44;5076245;28;46635;-73
2021/08/20 04:29:21;;;;;;;;;0.00;0.00;;;;;25.91;43.51;100882.84;5059191;28;45490;-73
2021/08/20 04:31:47;;;;;;;;;0.00;0.00;;;;;25.92;43.60;100886.50;5077893;28;45459;-73
2021/08/20 04:34:12;;;;;;;;;0.00;0.00;;;;;25.92;43.71;100883.75;5059595;28;45651;-73
2021/08/20 04:36:37;;;;;;;;;0.00;0.00;;;;;25.86;43.33;100874.00;5077433;28;45734;-73
2021/08/20 04:39:03;;;;;;;;;0.00;0.00;;;;;25.90;43.47;100883.81;5059102;28;45279;-74
2021/08/20 04:41:29;;;;;;;;;0.00;0.00;;;;;25.91;43.49;100887.44;5077792;28;45492;-74
2021/08/20 04:43:56;;;;;;;;;0.00;0.00;;;;;25.90;43.35;100882.94;5059345;28;45769;-73
2021/08/20 04:46:22;;;;;;;;;0.00;0.00;;;;;25.91;43.30;100885.59;5077212;28;45465;-73
2021/08/20 04:48:47;;;;;;;;;0.00;0.00;;;;;25.91;43.63;100879.25;5077379;28;45516;-73
2021/08/20 04:51:13;;;;;;;;;0.00;0.00;;;;;25.91;43.55;100885.59;5077367;28;45408;-74
2021/08/20 04:53:39;;;;;;;;;0.00;0.00;;;;;25.91;43.21;100884.69;5076942;28;45500;-73
2021/08/20 04:56:04;;;;;;;;;0.00;0.00;;;;;25.91;43.42;100891.03;5077260;28;45495;-73
2021/08/20 04:58:30;;;;;;;;;0.00;0.00;;;;;25.92;43.45;100881.91;5076866;28;45504;-73
2021/08/20 05:00:55;;;;;;;;;0.00;0.00;;;;;25.93;43.38;100894.59;5077114;28;45096;-73
2021/08/20 05:03:22;;;;;;;;;0.00;0.00;;;;;25.90;43.74;100888.41;5077078;28;45464;-73
2021/08/20 05:05:47;;;;;;;;;0.00;0.00;;;;;25.91;43.84;100890.16;5076340;28;45550;-73
2021/08/20 05:08:19;;;;;;;;;0.00;0.00;;;;;25.93;43.23;100888.25;5076538;28;45757;-73
2021/08/20 05:10:45;;;;;;;;;0.00;0.00;;;;;25.92;43.34;100884.63;5077024;28;45435;-74
2021/08/20 05:13:10;;;;;;;;;0.00;0.00;;;;;25.92;43.36;100890.09;5058696;28;45477;-73
2021/08/20 05:15:35;;;;;;;;;0.00;0.00;;;;;25.91;43.51;100890.16;5076171;28;45407;-73
2021/08/20 05:18:02;;;;;;;;;0.00;0.00;;;;;25.92;43.20;100891.94;5076841;28;45481;-73
2021/08/20 05:20:28;;;;;;;;;0.00;0.00;;;;;25.92;43.45;100902.84;5076892;28;45578;-73
2021/08/20 05:22:55;;;;;;;;;0.00;0.00;;;;;25.91;43.07;100898.34;5058499;28;45359;-73
2021/08/20 05:25:22;;;;;;;;;0.00;0.00;;;;;25.93;43.34;100904.59;5076980;28;46504;-73
2021/08/20 05:27:49;;;;;;;;;0.00;0.00;;;;;25.92;43.14;100903.72;5054592;28;45560;-73
2021/08/20 05:30:16;;;;;;;;;0.00;0.00;;;;;25.92;43.55;100905.56;5053813;28;45855;-73
2021/08/20 05:32:42;;;;;;;;;0.00;0.00;;;;;25.91;43.39;100901.06;5038212;28;45468;-73
2021/08/20 05:35:11;;;;;;;;;0.00;0.00;;;;;25.92;43.22;100913.75;5055959;28;45792;-74
2021/08/20 05:37:36;;;;;;;;;0.00;0.00;;;;;25.92;43.43;100911.00;5056064;28;45428;-73
2021/08/20 05:40:06;;;;;;;;;0.00;0.00;;;;;25.89;43.10;100908.38;5056302;28;45467;-73
2021/08/20 05:42:31;;;;;;;;;0.00;0.00;;;;;25.91;43.27;100906.50;5056657;28;45469;-73
2021/08/20 05:44:57;;;;;;;;;0.00;0.00;;;;;25.91;43.29;100912.84;5055856;28;45676;-73
2021/08/20 05:47:23;;;;;;;;;0.00;0.00;;;;;25.91;43.48;100911.97;5056046;28;45445;-73
2021/08/20 05:49:49;;;;;;;;;0.00;0.00;;;;;25.91;43.00;100911.97;5056098;28;45434;-73
2021/08/20 05:52:14;;;;;;;;;0.00;0.00;;;;;25.88;43.46;100901.19;5055931;28;45756;-73
2021/08/20 05:54:39;;;;;;;;;0.00;0.00;;;;;25.90;43.42;100911.06;5055830;28;45428;-73
2021/08/20 05:57:05;;;;;;;;;0.00;0.00;;;;;25.91;42.99;100910.09;5054565;28;45460;-73
2021/08/20 05:59:30;;;;;;;;;0.00;0.00;;;;;25.92;43.31;100909.16;5054905;28;45762;-74
2021/08/20 06:01:56;;;;;;;;;0.00;0.00;;;;;25.92;43.03;100908.28;5055709;28;45358;-74
2021/08/20 06:04:21;;;;;;;;;0.00;0.00;;;;;25.91;43.32;100903.78;5055750;28;45391;-73
2021/08/20 06:06:46;;;;;;;;;0.00;0.00;;;;;25.93;43.27;100904.59;5054691;28;45461;-73
2021/08/20 06:09:12;;;;;;;;;0.00;0.00;;;;;25.95;43.49;100908.13;5054789;28;45316;-74
2021/08/20 06:11:37;;;;;;;;;0.00;0.00;;;;;25.94;43.48;100911.81;5056581;28;45464;-73
2021/08/20 06:14:04;;;;;;;;;0.00;0.00;;;;;25.95;43.42;100913.56;5055647;28;45532;-70
2021/08/20 06:16:29;;;;;;;;;0.00;0.00;;;;;25.85;43.08;100912.22;5056012;28;45499;-70
2021/08/20 06:18:55;;;;;;;;;0.00;0.00;;;;;25.70;43.36;100911.97;5055781;28;45414;-69
2021/08/20 06:21:20;;;;;;;;;1.33;1.33;;;;;25.58;43.43;100911.66;5054045;28;45438;-67
2021/08/20 06:23:46;;;;;;;;;1.33;1.33;;;;;25.45;43.00;100925.84;5053386;28;45508;-68
2021/08/20 06:26:11;;;;;;;;;4.67;4.00;;;;;25.38;43.40;100918.00;5054426;28;45533;-67
2021/08/20 06:28:37;;;;;;;;;4.33;3.00;;;;;25.28;43.59;100918.41;5075813;28;45490;-69
2021/08/20 06:31:03;;;;;;;;;4.00;4.00;;;;;25.20;43.48;100919.69;5057744;28;44845;-68
2021/08/20 06:33:32;;;;;;;;;5.00;5.00;;;;;25.09;43.73;100915.59;5075879;28;46323;-72
2021/08/20 06:35:58;;;;;;;;;2.67;2.67;;;;;24.92;44.17;100912.72;5075409;28;45373;-69
2021/08/20 06:38:24;;;;;;;;;4.00;4.00;;;;;24.84;44.22;100923.91;5075251;28;45396;-68
2021/08/20 06:40:50;;;;;;;;;5.33;4.00;;;;;24.77;44.49;100930.56;5075230;28;45663;-69
2021/08/20 06:43:16;;;;;;;;;3.67;3.67;;;;;24.72;44.37;100921.72;5075342;28;45451;-67
2021/08/20 06:45:41;;;;;;;;;5.00;4.33;;;;;24.71;44.50;100928.13;5056749;28;45438;-66
2021/08/20 06:48:07;;;;;;;;;3.33;3.33;;;;;24.69;44.77;100932.72;5075782;28;45543;-68
2021/08/20 06:50:33;;;;;;;;;4.00;4.00;;;;;24.70;44.90;100929.06;5077004;28;45771;-66
2021/08/20 06:52:59;;;;;;;;;3.00;2.67;;;;;24.66;44.98;100930.13;5075117;28;46138;-68
2021/08/20 06:55:25;;;;;;;;;2.00;2.00;;;;;24.63;45.19;100925.72;5075860;28;45283;-68
2021/08/20 06:57:50;;;;;;;;;4.67;4.67;;;;;24.67;44.85;100926.47;5075616;28;45412;-66
2021/08/20 07:00:17;;;;;;;;;7.00;4.67;;;;;24.67;45.32;100931.91;5056580;28;45369;-66
2021/08/20 07:02:45;;;;;;;;;3.00;3.00;;;;;24.64;44.89;100932.94;5075388;28;46446;-66
2021/08/20 07:05:12;;;;;;;;;4.00;4.00;;;;;24.58;44.76;100929.56;5075181;28;45461;-66
2021/08/20 07:07:38;;;;;;;;;3.00;2.00;;;;;24.54;44.91;100932.44;5075459;28;45745;-66
2021/08/20 07:10:08;;;;;;;;;6.33;5.00;;;;;24.50;45.09;100935.31;5075601;28;45436;-66
2021/08/20 07:12:34;;;;;;;;;4.33;2.00;;;;;24.42;45.33;100931.97;5074868;28;46254;-66
2021/08/20 07:15:02;;;;;;;;;4.00;4.00;;;;;24.38;45.45;100936.69;5075265;28;45472;-66
2021/08/20 07:17:27;;;;;;;;;1.67;1.67;;;;;24.36;45.36;100935.88;5075104;28;45572;-68
2021/08/20 07:19:53;;;;;;;;;2.67;2.67;;;;;24.34;45.42;100935.03;5075231;28;45456;-66
2021/08/20 07:22:18;;;;;;;;;3.00;3.00;;;;;24.30;45.37;100941.53;5075351;28;46116;-66
2021/08/20 07:24:43;;;;;;;;;4.33;3.00;;;;;24.29;45.27;100937.91;5074803;28;45425;-66
2021/08/20 07:27:09;;;;;;;;;3.33;3.33;;;;;24.29;45.88;100939.75;5073766;28;45381;-67
2021/08/20 07:29:34;;;;;;;;;4.67;3.33;;;;;24.28;45.70;100949.75;5057267;28;45402;-66
2021/08/20 07:32:00;;;;;;;;;4.67;4.67;;;;;24.27;45.53;100938.94;5056669;28;46220;-66
2021/08/20 07:34:25;;;;;;;;;3.00;3.00;;;;;24.24;45.34;100941.75;5060091;28;45896;-65
2021/08/20 07:36:51;;;;;;;;;3.00;3.00;;;;;24.27;45.81;100944.38;5079773;28;45504;-66
2021/08/20 07:39:16;;;;;;;;;3.33;3.33;;;;;24.26;45.79;100943.50;5079937;28;45346;-65
2021/08/20 07:41:42;;;;;;;;;3.00;3.00;;;;;24.27;45.36;100950.69;5075985;28;45460;-65
2021/08/20 07:44:13;;;;;;;;;4.00;4.00;;;;;24.23;45.48;100945.44;5075016;28;45463;-66
2021/08/20 07:46:39;;;;;;;;;2.67;2.67;;;;;24.26;45.44;100945.31;5074661;28;45450;-66
2021/08/20 07:49:05;;;;;;;;;3.00;3.00;;;;;24.24;45.43;100950.81;5056413;28;45418;-65
2021/08/20 07:51:31;;;;;;;;;4.67;4.67;;;;;24.24;45.58;100956.25;5074839;28;45646;-65
2021/08/20 07:53:56;;;;;;;;;4.00;4.00;;;;;24.22;45.23;100952.72;5075739;28;45430;-65
2021/08/20 07:56:22;;;;;;;;;4.00;3.33;;;;;24.19;45.41;100947.38;5078195;28;45725;-66
2021/08/20 07:58:49;;;;;;;;;3.00;2.00;;;;;24.19;45.57;100952.81;5078759;28;45326;-66
2021/08/20 08:01:15;;;;;;;;;5.00;3.67;;;;;24.14;46.02;100955.72;5078430;28;46132;-66
2021/08/20 08:03:42;;;;;;;;;5.33;4.33;;;;;24.11;45.76;100955.81;5077878;28;45475;-65
2021/08/20 08:06:12;;;;;;;;;2.33;2.33;;;;;24.10;46.14;100964.06;5043124;28;45355;-65
2021/08/20 08:08:37;;;;;;;;;5.00;4.00;;;;;24.10;45.74;100954.06;5078375;28;45765;-64
2021/08/20 08:11:03;;;;;;;;;4.00;4.00;;;;;24.14;45.83;100958.44;5075562;28;45456;-65
2021/08/20 08:13:28;;;;;;;;;3.67;3.67;;;;;24.21;45.55;100961.81;5077729;28;45600;-65
2021/08/20 08:15:55;;;;;;;;;3.00;3.00;;;;;24.26;45.61;100962.50;5077368;28;45519;-66
2021/08/20 08:18:20;;;;;;;;;2.67;2.67;;;;;24.30;45.66;100958.72;5077504;28;45523;-66
2021/08/20 08:20:46;;;;;;;;;3.00;3.00;;;;;24.35;45.87;100963.97;5077395;28;46030;-66
2021/08/20 08:23:11;;;;;;;;;3.33;3.00;;;;;24.35;45.61;100961.25;5077420;28;45483;-66
2021/08/20 08:25:37;;;;;;;;;2.00;2.00;;;;;24.42;45.44;100968.25;5077272;28;45460;-66
2021/08/20 08:28:02;;;;;;;;;1.00;1.00;;;;;24.44;45.37;100974.50;5055429;28;45537;-66
2021/08/20 08:30:33;;;;;;;;;2.00;2.00;;;;;24.41;45.02;100963.72;5055946;28;45511;-65
2021/08/20 08:33:00;;;;;;;;;2.00;2.00;;;;;24.45;45.39;100980.81;5035088;28;45520;-65
2021/08/20 08:35:28;;;;;;;;;4.33;3.33;;;;;24.47;45.47;100973.47;5036481;28;45476;-65
2021/08/20 08:38:02;;;;;;;;;1.33;1.33;;;;;24.48;45.32;100972.50;5040044;28;45366;-66
2021/08/20 08:40:27;;;;;;;;;2.33;2.00;;;;;24.51;45.27;100975.16;5054199;28;46302;-66
2021/08/20 08:42:53;;;;;;;;;3.00;1.67;;;;;24.49;45.58;100972.47;5049836;28;45461;-66
2021/08/20 08:45:19;;;;;;;;;0.00;0.00;;;;;24.55;45.53;100979.53;5041838;28;45416;-66
2021/08/20 08:47:45;;;;;;;;;4.67;2.00;;;;;24.58;45.54;100981.22;5037086;28;45315;-66
2021/08/20 08:50:12;;;;;;;;;0.00;0.00;;;;;24.60;45.37;100984.78;5036629;28;45382;-65
2021/08/20 08:52:37;;;;;;;;;0.00;0.00;;;;;24.62;45.26;100989.22;5035482;28;45747;-65
2021/08/20 08:55:05;;;;;;;;;2.00;2.00;;;;;24.68;45.02;100988.06;5035659;28;46201;-66
2021/08/20 08:57:30;;;;;;;;;0.00;0.00;;;;;24.71;45.15;100985.22;5047742;28;45487;-66
2021/08/20 08:59:57;;;;;;;;;0.67;0.00;;;;;24.73;45.11;100980.63;5056067;28;46044;-67
2021/08/20 09:02:25;;;;;;;;;3.00;3.00;;;;;24.73;45.22;100986.94;5056303;28;45468;-66
2021/08/20 09:05:05;;;;;;;;;1.67;1.67;;;;;24.76;45.12;100980.47;5036063;28;45456;-67
2021/08/20 09:07:34;;;;;;;;;1.00;1.00;;;;;24.79;44.92;100974.91;5036079;28;45617;-66
2021/08/20 09:10:23;;;;;;;;;2.00;2.00;;;;;24.81;45.38;100975.75;5036049;28;47061;-66
2021/08/20 09:12:53;;;;;;;;;0.00;0.00;;;;;24.85;44.99;100971.94;5052670;28;45426;-66
2021/08/20 09:15:31;;;;;;;;;0.67;0.67;;;;;24.85;45.28;100966.50;5056329;28;45425;-66
2021/08/20 09:18:01;;;;;;;;;2.00;2.00;;;;;24.88;45.08;100971.78;5056256;28;45359;-65
2021/08/20 09:20:33;;;;;;;;;2.00;2.00;;;;;24.92;45.25;100970.72;5055906;28;47086;-65
2021/08/20 09:23:02;;;;;;;;;0.00;0.00;;;;;24.94;45.16;100974.28;5055935;28;45611;-66
2021/08/20 09:25:33;;;;;;;;;1.00;1.00;;;;;24.95;45.18;100970.59;5056260;28;45561;-66
2021/08/20 09:28:18;;;;;;;;;1.00;1.00;;;;;25.00;45.14;100972.25;5068809;28;45954;-64
2021/08/20 09:30:53;;;;;;;;;4.00;2.33;;;;;25.01;45.15;100972.19;5082891;28;46250;-65
2021/08/20 09:33:21;;;;;;;;;1.33;1.33;;;;;25.03;45.23;100973.00;5081822;28;45623;-66
2021/08/20 09:36:09;;;;;;;;;0.67;0.67;;;;;25.08;45.25;100967.34;5084459;28;44913;-65
2021/08/20 09:38:49;;;;;;;;;1.33;1.33;;;;;25.11;45.13;100956.34;5081747;28;45435;-65
2021/08/20 09:41:25;;;;;;;;;1.33;0.00;;;;;25.19;45.00;100967.78;5078644;28;45543;-65
2021/08/20 09:43:55;;;;;;;;;1.33;1.33;;;;;25.23;44.86;100965.84;5066432;28;45484;-65
2021/08/20 09:46:23;;;;;;;;;0.33;0.33;;;;;25.28;44.98;100964.69;5083938;28;45723;-65
2021/08/20 09:48:54;;;;;;;;;0.00;0.00;;;;;25.31;44.94;100967.28;5065805;28;44901;-66
2021/08/20 09:51:43;;;;;;;;;1.00;0.67;;;;;25.34;44.72;100978.03;5083771;28;45100;-65
2021/08/20 09:54:13;;;;;;;;;1.67;1.67;;;;;25.37;44.81;100970.69;5081907;28;45484;-64
2021/08/20 09:56:40;;;;;;;;;1.33;1.33;;;;;25.39;44.94;100977.84;5083308;28;45436;-65
2021/08/20 09:59:09;;;;;;;;;0.00;0.00;;;;;25.41;44.74;100970.50;5082875;28;45590;-66
2021/08/20 10:01:36;;;;;;;;;0.00;0.00;;;;;25.43;44.58;100975.84;5080106;28;45527;-65
2021/08/20 10:04:05;;;;;;;;;2.00;2.00;;;;;25.46;44.61;100975.75;5046703;28;45334;-65
2021/08/20 10:06:42;;;;;;;;;0.25;0.25;;;;;25.47;44.58;100982.94;5056734;28;45456;-65
2021/08/20 10:09:16;;;;;;;;;1.00;1.00;;;;;25.52;44.60;100979.06;5055625;28;45789;-65
2021/08/20 10:11:55;;;;;;;;;2.00;2.00;;;;;25.54;44.90;100984.44;5055128;28;45453;-65
2021/08/20 10:14:24;;;;;;;;;4.00;4.00;;;;;25.59;44.64;100986.97;5054317;28;45496;-65
2021/08/20 10:16:49;;;;;;;;;1.33;1.00;;;;;25.60;44.63;100978.72;5052854;28;45349;-66
2021/08/20 10:19:14;;;;;;;;;2.00;2.00;;;;;25.66;44.48;100978.44;5055738;28;45813;-66
2021/08/20 10:21:41;;;;;;;;;1.00;1.00;;;;;25.71;44.47;100981.88;5055188;28;45425;-66
2021/08/20 10:24:09;;;;;;;;;0.67;0.00;;;;;25.74;44.28;100986.28;5074505;28;45443;-66
2021/08/20 10:26:44;;;;;;;;;4.33;2.67;;;;;25.75;43.89;100990.75;5039470;28;45442;-65
2021/08/20 10:29:10;;;;;;;;;0.00;0.00;;;;;25.74;43.97;100986.28;5075716;28;45460;-66
2021/08/20 10:31:37;;;;;;;;;0.00;0.00;;;;;25.78;44.27;100987.91;5075668;28;46327;-65
2021/08/20 10:34:32;;;;;;;;;1.00;1.00;;;;;25.83;44.18;100988.56;5074881;28;45476;-65
2021/08/20 10:37:15;;;;;;;;;0.00;0.00;;;;;25.87;43.82;100992.03;5053910;28;45406;-65
2021/08/20 10:39:47;;;;;;;;;2.00;1.67;;;;;25.87;44.00;100986.59;5074880;28;45416;-65
2021/08/20 10:42:21;;;;;;;;;2.00;1.00;;;;;25.92;43.95;100985.47;5074766;28;46526;-65
2021/08/20 10:44:53;;;;;;;;;0.00;0.00;;;;;25.93;43.48;100986.34;5075422;28;45392;-65
2021/08/20 10:47:26;;;;;;;;;1.00;1.00;;;;;25.94;43.35;100978.09;5074727;28;45551;-65
2021/08/20 10:50:06;;;;;;;;;0.00;0.00;;;;;25.98;43.79;100978.84;5076029;28;45388;-66
2021/08/20 10:52:34;;;;;;;;;0.00;0.00;;;;;26.00;43.73;100978.78;5075161;28;46325;-65
2021/08/20 10:54:59;;;;;;;;;0.67;0.67;;;;;26.05;43.26;100972.16;5075379;28;45832;-65
2021/08/20 10:57:34;;;;;;;;;0.00;0.00;;;;;26.08;43.54;100977.47;5075298;28;45778;-65
2021/08/20 10:59:59;;;;;;;;;2.67;2.67;;;;;26.09;42.95;100976.50;5076145;28;45455;-65
2021/08/20 11:02:31;;;;;;;;;0.33;0.33;;;;;26.08;42.89;100969.28;5076949;27;45519;-65
2021/08/20 11:05:11;;;;;;;;;0.67;0.67;;;;;26.10;43.05;100977.41;5075084;28;45655;-65
2021/08/20 11:07:36;;;;;;;;;0.00;0.00;;;;;26.12;43.19;100970.91;5074576;28;45471;-65
2021/08/20 11:10:08;;;;;;;;;0.00;0.00;;;;;26.18;43.01;100974.28;5055961;28;45540;-65
2021/08/20 11:12:53;;;;;;;;;3.00;1.00;;;;;26.22;43.31;100967.72;5076631;28;45491;-66
2021/08/20 11:15:18;;;;;;;;;0.00;0.00;;;;;26.26;42.81;100977.56;5075894;28;45412;-66
2021/08/20 11:17:49;;;;;;;;;0.33;0.33;;;;;26.29;42.99;100971.94;5053773;28;45392;-66
2021/08/20 11:20:25;;;;;;;;;0.00;0.00;;;;;26.37;42.95;100979.78;5072989;28;45343;-66
2021/08/20 11:23:12;;;;;;;;;0.00;0.00;;;;;26.41;43.08;100976.81;5071988;28;45806;-67
2021/08/20 11:25:41;;;;;;;;;0.00;0.00;;;;;26.44;42.96;100979.41;5053876;28;45002;-66